sensor_id;sensor_type;location;lat;lon;timestamp;pressure;altitude;pressure_sealevel;temperature
72675;BMP280;60752;53.962;9.614;2022-07-12T00:02:41;102402.34;;;14.82
72675;BMP280;60752;53.962;9.614;2022-07-12T00:07:42;102399.16;;;14.70
72675;BMP280;60752;53.962;9.614;2022-07-12T00:12:42;102397.00;;;14.67
72675;BMP280;60752;53.962;9.614;2022-07-12T00:17:44;102395.69;;;14.65
72675;BMP280;60752;53.962;9.614;2022-07-12T00:22:44;102394.88;;;14.59
72675;BMP280;60752;53.962;9.614;2022-07-12T00:27:45;102396.16;;;14.51
72675;BMP280;60752;53.962;9.614;2022-07-12T00:32:47;102393.72;;;14.45
72675;BMP280;60752;53.962;9.614;2022-07-12T00:37:47;102382.84;;;14.31
72675;BMP280;60752;53.962;9.614;2022-07-12T00:42:48;102382.31;;;14.29
72675;BMP280;60752;53.962;9.614;2022-07-12T00:47:50;102374.38;;;14.24
72675;BMP280;60752;53.962;9.614;2022-07-12T00:52:52;102375.16;;;14.19
72675;BMP280;60752;53.962;9.614;2022-07-12T00:57:53;102363.28;;;14.17
72675;BMP280;60752;53.962;9.614;2022-07-12T01:02:56;102363.81;;;14.19
72675;BMP280;60752;53.962;9.614;2022-07-12T01:07:57;102366.31;;;14.04
72675;BMP280;60752;53.962;9.614;2022-07-12T01:12:58;102356.06;;;14.02
72675;BMP280;60752;53.962;9.614;2022-07-12T01:18:00;102359.97;;;13.94
72675;BMP280;60752;53.962;9.614;2022-07-12T01:23:02;102365.22;;;13.94
72675;BMP280;60752;53.962;9.614;2022-07-12T01:28:04;102368.28;;;13.86
72675;BMP280;60752;53.962;9.614;2022-07-12T01:33:04;102360.13;;;13.83
72675;BMP280;60752;53.962;9.614;2022-07-12T01:38:06;102359.50;;;13.71
72675;BMP280;60752;53.962;9.614;2022-07-12T01:43:06;102359.47;;;13.66
72675;BMP280;60752;53.962;9.614;2022-07-12T01:48:07;102365.94;;;13.58
72675;BMP280;60752;53.962;9.614;2022-07-12T01:53:09;102371.19;;;13.53
72675;BMP280;60752;53.962;9.614;2022-07-12T01:58:11;102373.78;;;13.48
72675;BMP280;60752;53.962;9.614;2022-07-12T02:03:12;102371.56;;;13.40
72675;BMP280;60752;53.962;9.614;2022-07-12T02:08:14;102374.13;;;13.35
72675;BMP280;60752;53.962;9.614;2022-07-12T02:13:14;102378.28;;;13.25
72675;BMP280;60752;53.962;9.614;2022-07-12T02:18:15;102387.38;;;13.18
72675;BMP280;60752;53.962;9.614;2022-07-12T02:23:16;102389.22;;;13.17
72675;BMP280;60752;53.962;9.614;2022-07-12T02:28:17;102391.53;;;13.14
72675;BMP280;60752;53.962;9.614;2022-07-12T02:33:17;102402.53;;;13.11
72675;BMP280;60752;53.962;9.614;2022-07-12T02:38:19;102397.78;;;13.08
72675;BMP280;60752;53.962;9.614;2022-07-12T02:43:20;102397.72;;;13.03
72675;BMP280;60752;53.962;9.614;2022-07-12T02:48:20;102417.41;;;13.00
72675;BMP280;60752;53.962;9.614;2022-07-12T02:53:22;102427.84;;;12.95
72675;BMP280;60752;53.962;9.614;2022-07-12T02:58:23;102428.72;;;13.01
72675;BMP280;60752;53.962;9.614;2022-07-12T03:03:23;102429.81;;;13.05
72675;BMP280;60752;53.962;9.614;2022-07-12T03:08:25;102443.34;;;13.13
72675;BMP280;60752;53.962;9.614;2022-07-12T03:13:25;102447.38;;;13.21
72675;BMP280;60752;53.962;9.614;2022-07-12T03:18:26;102442.16;;;13.26
72675;BMP280;60752;53.962;9.614;2022-07-12T03:23:28;102441.50;;;13.36
72675;BMP280;60752;53.962;9.614;2022-07-12T03:28:28;102435.53;;;13.45
72675;BMP280;60752;53.962;9.614;2022-07-12T03:33:28;102432.72;;;13.52
72675;BMP280;60752;53.962;9.614;2022-07-12T03:38:30;102433.56;;;13.57
72675;BMP280;60752;53.962;9.614;2022-07-12T03:43:31;102430.72;;;13.59
72675;BMP280;60752;53.962;9.614;2022-07-12T03:48:31;102444.53;;;13.71
72675;BMP280;60752;53.962;9.614;2022-07-12T03:53:33;102440.09;;;13.77
72675;BMP280;60752;53.962;9.614;2022-07-12T03:58:33;102453.84;;;13.84
72675;BMP280;60752;53.962;9.614;2022-07-12T04:03:36;102457.09;;;13.91
72675;BMP280;60752;53.962;9.614;2022-07-12T04:08:37;102459.47;;;13.98
72675;BMP280;60752;53.962;9.614;2022-07-12T04:13:38;102451.94;;;14.06
72675;BMP280;60752;53.962;9.614;2022-07-12T04:18:38;102468.13;;;14.20
72675;BMP280;60752;53.962;9.614;2022-07-12T04:23:40;102456.09;;;14.29
72675;BMP280;60752;53.962;9.614;2022-07-12T04:28:41;102462.16;;;14.30
72675;BMP280;60752;53.962;9.614;2022-07-12T04:33:41;102460.97;;;14.47
72675;BMP280;60752;53.962;9.614;2022-07-12T04:38:43;102446.84;;;14.64
72675;BMP280;60752;53.962;9.614;2022-07-12T04:43:43;102446.91;;;14.79
72675;BMP280;60752;53.962;9.614;2022-07-12T04:48:44;102453.59;;;14.91
72675;BMP280;60752;53.962;9.614;2022-07-12T04:53:46;102457.81;;;15.03
72675;BMP280;60752;53.962;9.614;2022-07-12T04:58:46;102469.22;;;15.13
72675;BMP280;60752;53.962;9.614;2022-07-12T05:03:46;102481.66;;;15.23
72675;BMP280;60752;53.962;9.614;2022-07-12T05:08:51;102482.72;;;15.27
72675;BMP280;60752;53.962;9.614;2022-07-12T05:13:52;102478.75;;;15.24
72675;BMP280;60752;53.962;9.614;2022-07-12T05:18:52;102486.19;;;15.33
72675;BMP280;60752;53.962;9.614;2022-07-12T05:23:54;102485.91;;;15.34
72675;BMP280;60752;53.962;9.614;2022-07-12T05:28:54;102493.84;;;15.34
72675;BMP280;60752;53.962;9.614;2022-07-12T05:33:55;102489.06;;;15.36
72675;BMP280;60752;53.962;9.614;2022-07-12T05:38:57;102485.66;;;15.41
72675;BMP280;60752;53.962;9.614;2022-07-12T05:43:57;102482.75;;;15.42
72675;BMP280;60752;53.962;9.614;2022-07-12T05:48:57;102483.34;;;15.49
72675;BMP280;60752;53.962;9.614;2022-07-12T05:54:02;102474.09;;;15.62
72675;BMP280;60752;53.962;9.614;2022-07-12T05:59:02;102472.00;;;15.69
72675;BMP280;60752;53.962;9.614;2022-07-12T06:04:03;102482.03;;;15.82
72675;BMP280;60752;53.962;9.614;2022-07-12T06:09:05;102480.19;;;15.93
72675;BMP280;60752;53.962;9.614;2022-07-12T06:14:05;102486.28;;;15.99
72675;BMP280;60752;53.962;9.614;2022-07-12T06:19:05;102487.06;;;16.04
72675;BMP280;60752;53.962;9.614;2022-07-12T06:24:07;102480.19;;;16.08
72675;BMP280;60752;53.962;9.614;2022-07-12T06:29:08;102478.34;;;16.14
72675;BMP280;60752;53.962;9.614;2022-07-12T06:34:08;102474.88;;;16.18
72675;BMP280;60752;53.962;9.614;2022-07-12T06:39:10;102479.94;;;16.30
72675;BMP280;60752;53.962;9.614;2022-07-12T06:44:10;102482.00;;;16.38
72675;BMP280;60752;53.962;9.614;2022-07-12T06:49:11;102492.84;;;16.47
72675;BMP280;60752;53.962;9.614;2022-07-12T06:54:13;102495.75;;;16.55
72675;BMP280;60752;53.962;9.614;2022-07-12T06:59:13;102493.38;;;16.59
72675;BMP280;60752;53.962;9.614;2022-07-12T07:04:13;102489.66;;;16.65
72675;BMP280;60752;53.962;9.614;2022-07-12T07:09:15;102485.16;;;16.71
72675;BMP280;60752;53.962;9.614;2022-07-12T07:14:16;102482.44;;;16.81
72675;BMP280;60752;53.962;9.614;2022-07-12T07:19:16;102487.97;;;16.89
72675;BMP280;60752;53.962;9.614;2022-07-12T07:24:18;102496.91;;;17.04
72675;BMP280;60752;53.962;9.614;2022-07-12T07:29:18;102495.31;;;17.08
72675;BMP280;60752;53.962;9.614;2022-07-12T07:34:19;102507.44;;;17.14
72675;BMP280;60752;53.962;9.614;2022-07-12T07:39:21;102506.66;;;17.18
72675;BMP280;60752;53.962;9.614;2022-07-12T07:44:21;102511.13;;;17.23
72675;BMP280;60752;53.962;9.614;2022-07-12T07:49:21;102506.03;;;17.32
72675;BMP280;60752;53.962;9.614;2022-07-12T07:54:23;102507.28;;;17.44
72675;BMP280;60752;53.962;9.614;2022-07-12T07:59:24;102511.78;;;17.49
72675;BMP280;60752;53.962;9.614;2022-07-12T08:04:24;102516.53;;;17.52
72675;BMP280;60752;53.962;9.614;2022-07-12T08:09:26;102521.50;;;17.58
72675;BMP280;60752;53.962;9.614;2022-07-12T08:14:26;102524.41;;;17.62
72675;BMP280;60752;53.962;9.614;2022-07-12T08:19:27;102520.63;;;17.68
72675;BMP280;60752;53.962;9.614;2022-07-12T08:24:29;102520.28;;;17.80
72675;BMP280;60752;53.962;9.614;2022-07-12T08:29:29;102527.03;;;17.96
72675;BMP280;60752;53.962;9.614;2022-07-12T08:34:29;102521.06;;;18.14
72675;BMP280;60752;53.962;9.614;2022-07-12T08:39:31;102522.78;;;18.29
72675;BMP280;60752;53.962;9.614;2022-07-12T08:44:32;102528.09;;;18.58
72675;BMP280;60752;53.962;9.614;2022-07-12T08:49:32;102526.94;;;18.88
72675;BMP280;60752;53.962;9.614;2022-07-12T08:54:39;102529.69;;;19.02
72675;BMP280;60752;53.962;9.614;2022-07-12T08:59:39;102529.03;;;19.10
72675;BMP280;60752;53.962;9.614;2022-07-12T09:04:40;102525.72;;;19.18
72675;BMP280;60752;53.962;9.614;2022-07-12T09:09:42;102523.53;;;19.25
72675;BMP280;60752;53.962;9.614;2022-07-12T09:14:42;102518.75;;;19.41
72675;BMP280;60752;53.962;9.614;2022-07-12T09:19:53;102517.47;;;19.57
72675;BMP280;60752;53.962;9.614;2022-07-12T09:24:55;102525.78;;;19.69
72675;BMP280;60752;53.962;9.614;2022-07-12T09:29:56;102510.91;;;19.68
72675;BMP280;60752;53.962;9.614;2022-07-12T09:34:57;102501.00;;;19.74
72675;BMP280;60752;53.962;9.614;2022-07-12T09:39:59;102498.34;;;19.87
72675;BMP280;60752;53.962;9.614;2022-07-12T09:45:00;102499.19;;;20.01
72675;BMP280;60752;53.962;9.614;2022-07-12T09:50:01;102501.16;;;20.37
72675;BMP280;60752;53.962;9.614;2022-07-12T09:55:03;102503.91;;;20.46
72675;BMP280;60752;53.962;9.614;2022-07-12T10:00:07;102498.88;;;20.71
72675;BMP280;60752;53.962;9.614;2022-07-12T10:05:08;102501.31;;;20.82
72675;BMP280;60752;53.962;9.614;2022-07-12T10:10:11;102514.00;;;20.85
72675;BMP280;60752;53.962;9.614;2022-07-12T10:15:15;102509.00;;;20.83
72675;BMP280;60752;53.962;9.614;2022-07-12T10:20:17;102510.81;;;20.96
72675;BMP280;60752;53.962;9.614;2022-07-12T10:25:32;102512.50;;;21.06
72675;BMP280;60752;53.962;9.614;2022-07-12T10:30:41;102509.09;;;21.14
72675;BMP280;60752;53.962;9.614;2022-07-12T10:35:57;102508.09;;;21.46
72675;BMP280;60752;53.962;9.614;2022-07-12T10:41:16;102512.25;;;21.61
72675;BMP280;60752;53.962;9.614;2022-07-12T10:46:19;102508.09;;;21.55
72675;BMP280;60752;53.962;9.614;2022-07-12T10:51:20;102500.47;;;21.62
72675;BMP280;60752;53.962;9.614;2022-07-12T10:56:23;102499.28;;;21.68
72675;BMP280;60752;53.962;9.614;2022-07-12T11:01:27;102497.13;;;21.78
72675;BMP280;60752;53.962;9.614;2022-07-12T11:06:34;102491.16;;;21.81
72675;BMP280;60752;53.962;9.614;2022-07-12T11:11:42;102484.94;;;21.95
72675;BMP280;60752;53.962;9.614;2022-07-12T11:16:44;102489.41;;;22.08
72675;BMP280;60752;53.962;9.614;2022-07-12T11:21:45;102490.91;;;22.00
72675;BMP280;60752;53.962;9.614;2022-07-12T11:26:48;102493.66;;;22.17
72675;BMP280;60752;53.962;9.614;2022-07-12T11:31:49;102473.09;;;22.18
72675;BMP280;60752;53.962;9.614;2022-07-12T11:36:50;102470.94;;;22.29
72675;BMP280;60752;53.962;9.614;2022-07-12T11:41:56;102471.41;;;22.39
72675;BMP280;60752;53.962;9.614;2022-07-12T11:46:56;102464.38;;;22.43
72675;BMP280;60752;53.962;9.614;2022-07-12T11:51:57;102451.81;;;22.44
72675;BMP280;60752;53.962;9.614;2022-07-12T11:57:07;102449.41;;;22.34
72675;BMP280;60752;53.962;9.614;2022-07-12T12:02:08;102457.09;;;22.35
72675;BMP280;60752;53.962;9.614;2022-07-12T12:07:09;102453.66;;;22.35
72675;BMP280;60752;53.962;9.614;2022-07-12T12:12:15;102456.19;;;22.40
72675;BMP280;60752;53.962;9.614;2022-07-12T12:17:16;102460.56;;;22.44
72675;BMP280;60752;53.962;9.614;2022-07-12T12:22:32;102445.19;;;22.50
72675;BMP280;60752;53.962;9.614;2022-07-12T12:27:40;102441.44;;;22.59
72675;BMP280;60752;53.962;9.614;2022-07-12T12:32:49;102434.22;;;22.51
72675;BMP280;60752;53.962;9.614;2022-07-12T12:37:51;102431.72;;;22.55
72675;BMP280;60752;53.962;9.614;2022-07-12T12:43:05;102430.44;;;22.61
72675;BMP280;60752;53.962;9.614;2022-07-12T12:48:05;102415.03;;;22.67
72675;BMP280;60752;53.962;9.614;2022-07-12T12:53:07;102409.81;;;22.70
72675;BMP280;60752;53.962;9.614;2022-07-12T12:58:09;102409.81;;;22.70
72675;BMP280;60752;53.962;9.614;2022-07-12T13:03:11;102408.75;;;22.71
72675;BMP280;60752;53.962;9.614;2022-07-12T13:08:15;102416.47;;;22.73
72675;BMP280;60752;53.962;9.614;2022-07-12T13:13:17;102414.41;;;22.70
72675;BMP280;60752;53.962;9.614;2022-07-12T13:18:17;102420.38;;;22.75
72675;BMP280;60752;53.962;9.614;2022-07-12T13:23:18;102415.19;;;22.79
72675;BMP280;60752;53.962;9.614;2022-07-12T13:28:20;102422.75;;;22.77
72675;BMP280;60752;53.962;9.614;2022-07-12T13:33:21;102425.41;;;22.77
72675;BMP280;60752;53.962;9.614;2022-07-12T13:38:21;102413.28;;;22.79
72675;BMP280;60752;53.962;9.614;2022-07-12T13:43:26;102409.69;;;22.84
72675;BMP280;60752;53.962;9.614;2022-07-12T13:48:26;102415.78;;;22.84
72675;BMP280;60752;53.962;9.614;2022-07-12T13:53:27;102414.84;;;22.89
72675;BMP280;60752;53.962;9.614;2022-07-12T13:58:28;102415.16;;;22.96
72675;BMP280;60752;53.962;9.614;2022-07-12T14:03:29;102421.13;;;23.02
72675;BMP280;60752;53.962;9.614;2022-07-12T14:08:29;102416.72;;;23.06
72675;BMP280;60752;53.962;9.614;2022-07-12T14:13:31;102411.50;;;23.09
72675;BMP280;60752;53.962;9.614;2022-07-12T14:18:31;102417.63;;;23.10
72675;BMP280;60752;53.962;9.614;2022-07-12T14:23:32;102419.19;;;23.11
72675;BMP280;60752;53.962;9.614;2022-07-12T14:28:36;102419.69;;;23.13
72675;BMP280;60752;53.962;9.614;2022-07-12T14:33:36;102419.81;;;23.16
72675;BMP280;60752;53.962;9.614;2022-07-12T14:38:37;102417.31;;;23.20
72675;BMP280;60752;53.962;9.614;2022-07-12T14:43:39;102418.69;;;23.26
72675;BMP280;60752;53.962;9.614;2022-07-12T14:48:39;102409.88;;;23.25
72675;BMP280;60752;53.962;9.614;2022-07-12T14:53:40;102410.50;;;23.22
72675;BMP280;60752;53.962;9.614;2022-07-12T14:58:44;102409.25;;;23.28
72675;BMP280;60752;53.962;9.614;2022-07-12T15:03:45;102387.56;;;23.30
72675;BMP280;60752;53.962;9.614;2022-07-12T15:08:45;102380.44;;;23.34
72675;BMP280;60752;53.962;9.614;2022-07-12T15:13:47;102366.00;;;23.26
72675;BMP280;60752;53.962;9.614;2022-07-12T15:18:48;102372.47;;;23.25
72675;BMP280;60752;53.962;9.614;2022-07-12T15:23:49;102372.03;;;23.15
72675;BMP280;60752;53.962;9.614;2022-07-12T15:28:54;102379.09;;;23.11
72675;BMP280;60752;53.962;9.614;2022-07-12T15:33:54;102377.53;;;23.10
72675;BMP280;60752;53.962;9.614;2022-07-12T15:38:55;102375.97;;;23.09
72675;BMP280;60752;53.962;9.614;2022-07-12T15:43:57;102366.72;;;23.06
72675;BMP280;60752;53.962;9.614;2022-07-12T15:48:57;102355.25;;;23.06
72675;BMP280;60752;53.962;9.614;2022-07-12T15:53:58;102342.19;;;23.04
72675;BMP280;60752;53.962;9.614;2022-07-12T15:59:00;102340.19;;;23.01
72675;BMP280;60752;53.962;9.614;2022-07-12T16:04:00;102326.38;;;22.90
72675;BMP280;60752;53.962;9.614;2022-07-12T16:09:01;102332.66;;;22.86
72675;BMP280;60752;53.962;9.614;2022-07-12T16:14:03;102330.50;;;22.79
72675;BMP280;60752;53.962;9.614;2022-07-12T16:19:03;102323.75;;;22.73
72675;BMP280;60752;53.962;9.614;2022-07-12T16:24:04;102329.69;;;22.70
72675;BMP280;60752;53.962;9.614;2022-07-12T16:29:06;102323.47;;;22.66
72675;BMP280;60752;53.962;9.614;2022-07-12T16:34:06;102322.97;;;22.64
72675;BMP280;60752;53.962;9.614;2022-07-12T16:39:07;102321.41;;;22.63
72675;BMP280;60752;53.962;9.614;2022-07-12T16:44:09;102316.56;;;22.65
72675;BMP280;60752;53.962;9.614;2022-07-12T16:49:09;102333.66;;;22.64
72675;BMP280;60752;53.962;9.614;2022-07-12T16:54:09;102319.06;;;22.61
72675;BMP280;60752;53.962;9.614;2022-07-12T16:59:11;102324.13;;;22.54
72675;BMP280;60752;53.962;9.614;2022-07-12T17:04:12;102309.19;;;22.53
72675;BMP280;60752;53.962;9.614;2022-07-12T17:09:12;102320.81;;;22.49
72675;BMP280;60752;53.962;9.614;2022-07-12T17:14:14;102331.78;;;22.47
72675;BMP280;60752;53.962;9.614;2022-07-12T17:19:15;102320.66;;;22.45
72675;BMP280;60752;53.962;9.614;2022-07-12T17:24:15;102308.88;;;22.38
72675;BMP280;60752;53.962;9.614;2022-07-12T17:29:17;102307.00;;;22.38
72675;BMP280;60752;53.962;9.614;2022-07-12T17:34:18;102295.25;;;22.31
72675;BMP280;60752;53.962;9.614;2022-07-12T17:39:18;102297.59;;;22.23
72675;BMP280;60752;53.962;9.614;2022-07-12T17:44:20;102304.19;;;22.17
72675;BMP280;60752;53.962;9.614;2022-07-12T17:49:20;102315.97;;;22.16
72675;BMP280;60752;53.962;9.614;2022-07-12T17:54:21;102321.28;;;22.16
72675;BMP280;60752;53.962;9.614;2022-07-12T17:59:23;102322.56;;;22.19
72675;BMP280;60752;53.962;9.614;2022-07-12T18:04:23;102316.75;;;22.25
72675;BMP280;60752;53.962;9.614;2022-07-12T18:09:24;102320.66;;;22.28
72675;BMP280;60752;53.962;9.614;2022-07-12T18:14:25;102308.13;;;22.20
72675;BMP280;60752;53.962;9.614;2022-07-12T18:19:26;102298.72;;;22.14
72675;BMP280;60752;53.962;9.614;2022-07-12T18:24:26;102301.66;;;22.04
72675;BMP280;60752;53.962;9.614;2022-07-12T18:29:28;102287.69;;;21.89
72675;BMP280;60752;53.962;9.614;2022-07-12T18:34:29;102285.50;;;21.74
72675;BMP280;60752;53.962;9.614;2022-07-12T18:39:29;102275.44;;;21.63
72675;BMP280;60752;53.962;9.614;2022-07-12T18:44:31;102270.09;;;21.63
72675;BMP280;60752;53.962;9.614;2022-07-12T18:49:34;102282.94;;;21.61
72675;BMP280;60752;53.962;9.614;2022-07-12T18:54:35;102279.19;;;21.62
72675;BMP280;60752;53.962;9.614;2022-07-12T18:59:37;102275.13;;;21.56
72675;BMP280;60752;53.962;9.614;2022-07-12T19:04:37;102275.06;;;21.38
72675;BMP280;60752;53.962;9.614;2022-07-12T19:09:38;102267.34;;;21.28
72675;BMP280;60752;53.962;9.614;2022-07-12T19:14:40;102270.09;;;21.14
72675;BMP280;60752;53.962;9.614;2022-07-12T19:19:40;102265.38;;;21.11
72675;BMP280;60752;53.962;9.614;2022-07-12T19:24:41;102267.38;;;20.97
72675;BMP280;60752;53.962;9.614;2022-07-12T19:29:42;102262.97;;;20.93
72675;BMP280;60752;53.962;9.614;2022-07-12T19:34:43;102257.00;;;20.87
72675;BMP280;60752;53.962;9.614;2022-07-12T19:39:43;102254.59;;;20.77
72675;BMP280;60752;53.962;9.614;2022-07-12T19:44:45;102252.03;;;20.63
72675;BMP280;60752;53.962;9.614;2022-07-12T19:49:46;102249.91;;;20.52
72675;BMP280;60752;53.962;9.614;2022-07-12T19:54:46;102247.28;;;20.38
72675;BMP280;60752;53.962;9.614;2022-07-12T19:59:48;102226.66;;;20.21
72675;BMP280;60752;53.962;9.614;2022-07-12T20:04:48;102233.22;;;20.15
72675;BMP280;60752;53.962;9.614;2022-07-12T20:09:49;102221.88;;;20.10
72675;BMP280;60752;53.962;9.614;2022-07-12T20:14:50;102214.22;;;20.08
72675;BMP280;60752;53.962;9.614;2022-07-12T20:19:51;102213.13;;;20.09
72675;BMP280;60752;53.962;9.614;2022-07-12T20:24:51;102206.72;;;20.10
72675;BMP280;60752;53.962;9.614;2022-07-12T20:29:53;102213.63;;;20.11
72675;BMP280;60752;53.962;9.614;2022-07-12T20:34:53;102225.44;;;20.05
72675;BMP280;60752;53.962;9.614;2022-07-12T20:39:54;102240.59;;;20.04
72675;BMP280;60752;53.962;9.614;2022-07-12T20:44:56;102234.03;;;20.02
72675;BMP280;60752;53.962;9.614;2022-07-12T20:49:56;102229.28;;;19.99
72675;BMP280;60752;53.962;9.614;2022-07-12T20:54:56;102231.28;;;19.93
72675;BMP280;60752;53.962;9.614;2022-07-12T20:59:58;102214.97;;;19.86
72675;BMP280;60752;53.962;9.614;2022-07-12T21:04:59;102211.72;;;19.76
72675;BMP280;60752;53.962;9.614;2022-07-12T21:09:59;102228.31;;;19.73
72675;BMP280;60752;53.962;9.614;2022-07-12T21:15:01;102224.84;;;19.72
72675;BMP280;60752;53.962;9.614;2022-07-12T21:20:02;102204.19;;;19.69
72675;BMP280;60752;53.962;9.614;2022-07-12T21:25:03;102194.44;;;19.64
72675;BMP280;60752;53.962;9.614;2022-07-12T21:30:06;102184.88;;;19.63
72675;BMP280;60752;53.962;9.614;2022-07-12T21:35:08;102184.00;;;19.68
72675;BMP280;60752;53.962;9.614;2022-07-12T21:40:10;102178.97;;;19.66
72675;BMP280;60752;53.962;9.614;2022-07-12T21:45:12;102173.38;;;19.68
72675;BMP280;60752;53.962;9.614;2022-07-12T21:50:12;102164.81;;;19.71
72675;BMP280;60752;53.962;9.614;2022-07-12T21:55:13;102155.22;;;19.70
72675;BMP280;60752;53.962;9.614;2022-07-12T22:00:17;102149.16;;;19.69
72675;BMP280;60752;53.962;9.614;2022-07-12T22:05:18;102149.47;;;19.68
72675;BMP280;60752;53.962;9.614;2022-07-12T22:10:18;102155.94;;;19.62
72675;BMP280;60752;53.962;9.614;2022-07-12T22:15:20;102149.38;;;19.59
72675;BMP280;60752;53.962;9.614;2022-07-12T22:20:20;102155.59;;;19.55
72675;BMP280;60752;53.962;9.614;2022-07-12T22:25:21;102157.25;;;19.51
72675;BMP280;60752;53.962;9.614;2022-07-12T22:30:23;102156.78;;;19.49
72675;BMP280;60752;53.962;9.614;2022-07-12T22:35:24;102150.19;;;19.46
72675;BMP280;60752;53.962;9.614;2022-07-12T22:40:24;102141.75;;;19.44
72675;BMP280;60752;53.962;9.614;2022-07-12T22:45:26;102128.56;;;19.39
72675;BMP280;60752;53.962;9.614;2022-07-12T22:50:26;102128.75;;;19.43
72675;BMP280;60752;53.962;9.614;2022-07-12T22:55:27;102129.81;;;19.42
72675;BMP280;60752;53.962;9.614;2022-07-12T23:00:29;102132.47;;;19.42
72675;BMP280;60752;53.962;9.614;2022-07-12T23:05:29;102119.81;;;19.39
72675;BMP280;60752;53.962;9.614;2022-07-12T23:10:30;102122.47;;;19.39
72675;BMP280;60752;53.962;9.614;2022-07-12T23:15:32;102133.28;;;19.42
72675;BMP280;60752;53.962;9.614;2022-07-12T23:20:32;102123.25;;;19.39
72675;BMP280;60752;53.962;9.614;2022-07-12T23:25:32;102121.00;;;19.32
72675;BMP280;60752;53.962;9.614;2022-07-12T23:30:34;102117.25;;;19.33
72675;BMP280;60752;53.962;9.614;2022-07-12T23:35:35;102105.19;;;19.27
72675;BMP280;60752;53.962;9.614;2022-07-12T23:40:35;102095.53;;;19.31
72675;BMP280;60752;53.962;9.614;2022-07-12T23:45:37;102091.78;;;19.32
72675;BMP280;60752;53.962;9.614;2022-07-12T23:50:38;102080.69;;;19.30
72675;BMP280;60752;53.962;9.614;2022-07-12T23:55:38;102075.38;;;19.30
